Time,TemperatureF,DewpointF,PressureIn,WindDirection,WindDirectionDegrees,WindSpeedMPH,WindSpeedGustMPH,Humidity,HourlyPrecipIn,Conditions,Clouds,dailyrainin,SoftwareType,DateUTC
2013-01-11 00:00:00,34.1,31.2,30.11,ESE,102,2.0,2.0,89,0.09,,OVC003,0.10,VWS V14.01,2013-01-11 05:00:00,
2013-01-11 00:01:00,34.0,31.1,30.11,ESE,103,2.0,2.0,89,0.10,,OVC003,0.11,VWS V14.01,2013-01-11 05:01:00,
2013-01-11 00:05:00,34.0,31.1,30.10,ESE,103,2.0,0.0,89,0.11,,OVC003,0.01,VWS V14.01,2013-01-11 05:05:00,
2013-01-11 00:07:00,34.0,31.1,30.10,ESE,103,3.0,3.0,89,0.11,,OVC003,0.01,VWS V14.01,2013-01-11 05:07:00,
2013-01-11 00:12:00,34.0,31.1,30.10,ESE,103,2.0,2.0,89,0.11,,OVC003,0.02,VWS V14.01,2013-01-11 05:12:00,
2013-01-11 00:17:00,34.0,31.1,30.08,ESE,103,2.0,2.0,89,0.12,,OVC003,0.03,VWS V14.01,2013-01-11 05:17:00,
2013-01-11 00:22:00,34.0,31.1,30.08,ESE,102,2.0,2.0,89,0.12,,OVC003,0.04,VWS V14.01,2013-01-11 05:22:00,
2013-01-11 00:27:00,34.0,31.4,30.08,ESE,103,2.0,0.0,90,0.11,,OVC003,0.04,VWS V14.01,2013-01-11 05:27:00,
2013-01-11 00:32:00,34.0,31.4,30.07,SE,133,5.0,5.0,90,0.11,,OVC003,0.04,VWS V14.01,2013-01-11 05:32:00,
2013-01-11 00:37:00,34.0,31.4,30.07,SE,130,2.0,3.0,90,0.10,,OVC003,0.04,VWS V14.01,2013-01-11 05:37:00,
2013-01-11 00:42:00,34.0,31.4,30.07,SE,131,2.0,2.0,90,0.10,,OVC003,0.04,VWS V14.01,2013-01-11 05:42:00,
2013-01-11 00:47:00,34.0,31.4,30.06,SE,131,2.0,2.0,90,0.09,,OVC003,0.04,VWS V14.01,2013-01-11 05:47:00,
2013-01-11 00:52:00,34.1,31.5,30.06,ESE,120,2.0,3.0,90,0.09,,OVC003,0.04,VWS V14.01,2013-01-11 05:52:00,
2013-01-11 00:57:00,34.1,31.5,30.06,ESE,121,2.0,2.0,90,0.09,,OVC003,0.05,VWS V14.01,2013-01-11 05:57:00,
2013-01-11 01:02:00,34.1,31.5,30.05,ESE,121,2.0,3.0,90,0.08,,OVC003,0.06,VWS V14.01,2013-01-11 06:02:00,
2013-01-11 01:07:00,34.1,31.5,30.05,ESE,121,2.0,2.0,90,0.07,,OVC003,0.07,VWS V14.01,2013-01-11 06:07:00,
2013-01-11 01:12:00,34.1,31.8,30.05,ESE,121,2.0,3.0,91,0.07,,OVC003,0.08,VWS V14.01,2013-01-11 06:12:00,
2013-01-11 01:17:00,34.1,31.8,30.05,ESE,121,2.0,2.0,91,0.08,,OVC003,0.10,VWS V14.01,2013-01-11 06:17:00,
2013-01-11 01:22:00,34.2,31.9,30.05,ESE,121,2.0,3.0,91,0.09,,OVC003,0.12,VWS V14.01,2013-01-11 06:22:00,
2013-01-11 01:27:00,34.2,31.9,30.05,ESE,121,2.0,2.0,91,0.10,,OVC003,0.14,VWS V14.01,2013-01-11 06:27:00,
2013-01-11 01:32:00,34.2,31.9,30.03,ESE,121,2.0,3.0,91,0.11,,OVC003,0.15,VWS V14.01,2013-01-11 06:32:00,
2013-01-11 01:37:00,34.2,31.9,30.03,ENE,77,3.0,3.0,91,0.12,,OVC003,0.16,VWS V14.01,2013-01-11 06:37:00,
2013-01-11 01:42:00,34.3,32.0,30.03,ENE,78,3.0,3.0,91,0.14,,OVC003,0.18,VWS V14.01,2013-01-11 06:42:00,
2013-01-11 01:47:00,34.3,32.0,30.02,ENE,76,2.0,2.0,91,0.15,,OVC003,0.19,VWS V14.01,2013-01-11 06:47:00,
2013-01-11 01:52:00,34.4,32.0,30.02,ENE,78,2.0,2.0,91,0.16,,OVC003,0.20,VWS V14.01,2013-01-11 06:52:00,
2013-01-11 01:57:00,34.4,32.0,30.02,ENE,78,2.0,2.0,91,0.16,,OVC003,0.20,VWS V14.01,2013-01-11 06:57:00,
2013-01-11 02:02:00,34.4,32.3,30.01,ENE,78,3.0,3.0,92,0.16,,OVC003,0.21,VWS V14.01,2013-01-11 07:02:00,
2013-01-11 02:07:00,34.4,32.3,30.01,ENE,78,2.0,3.0,92,0.15,,OVC003,0.21,VWS V14.01,2013-01-11 07:07:00,
2013-01-11 02:12:00,34.4,32.3,30.01,ENE,78,2.0,2.0,92,0.15,,OVC003,0.22,VWS V14.01,2013-01-11 07:12:00,
2013-01-11 02:17:00,34.4,32.3,30.01,ENE,78,2.0,2.0,92,0.16,,OVC003,0.24,VWS V14.01,2013-01-11 07:17:00,
2013-01-11 02:22:00,34.4,32.3,30.01,ENE,78,3.0,3.0,92,0.17,,OVC003,0.27,VWS V14.01,2013-01-11 07:22:00,
2013-01-11 02:27:00,34.4,32.3,30.01,ESE,120,2.0,3.0,92,0.19,,OVC003,0.31,VWS V14.01,2013-01-11 07:27:00,
2013-01-11 02:32:00,34.5,32.4,30.01,ESE,120,2.0,2.0,92,0.18,,OVC003,0.32,VWS V14.01,2013-01-11 07:32:00,
2013-01-11 02:37:00,34.5,32.4,30.01,ESE,120,2.0,2.0,92,0.18,,OVC003,0.33,VWS V14.01,2013-01-11 07:37:00,
2013-01-11 02:42:00,34.7,32.6,30.01,ESE,120,2.0,2.0,92,0.19,,OVC003,0.35,VWS V14.01,2013-01-11 07:42:00,
2013-01-11 02:47:00,34.7,32.6,30.00,ESE,120,3.0,3.0,92,0.18,,OVC003,0.36,VWS V14.01,2013-01-11 07:47:00,
2013-01-11 02:52:00,34.8,32.7,30.00,ESE,119,2.0,2.0,92,0.20,,OVC003,0.39,VWS V14.01,2013-01-11 07:52:00,
2013-01-11 02:57:00,34.8,32.7,30.00,ESE,118,2.0,2.0,92,0.22,,OVC003,0.42,VWS V14.01,2013-01-11 07:57:00,
2013-01-11 03:02:00,34.8,32.7,29.98,ESE,118,3.0,3.0,92,0.24,,OVC003,0.44,VWS V14.01,2013-01-11 08:02:00,
2013-01-11 03:07:00,34.9,32.8,29.98,ESE,116,2.0,2.0,92,0.25,,OVC003,0.46,VWS V14.01,2013-01-11 08:07:00,
2013-01-11 03:12:00,35.0,32.9,29.98,ENE,66,2.0,2.0,92,0.26,,OVC003,0.48,VWS V14.01,2013-01-11 08:12:00,
2013-01-11 03:17:00,35.0,32.9,29.97,ENE,67,2.0,2.0,92,0.27,,OVC003,0.49,VWS V14.01,2013-01-11 08:17:00,
2013-01-11 03:22:00,35.0,32.9,29.97,SE,124,3.0,3.0,92,0.23,,OVC003,0.50,VWS V14.01,2013-01-11 08:22:00,
2013-01-11 03:27:00,35.1,33.0,29.97,SE,129,3.0,3.0,92,0.21,,OVC003,0.52,VWS V14.01,2013-01-11 08:27:00,
2013-01-11 03:32:00,35.1,33.0,29.96,ENE,76,4.0,4.0,92,0.21,,OVC003,0.53,VWS V14.01,2013-01-11 08:32:00,
2013-01-11 03:38:00,35.2,33.4,29.96,ESE,121,2.0,0.0,93,0.21,,OVC003,0.54,VWS V14.01,2013-01-11 08:38:00,
2013-01-11 03:43:00,35.2,33.4,29.96,ESE,121,4.0,4.0,93,0.19,,OVC003,0.54,VWS V14.01,2013-01-11 08:43:00,
2013-01-11 03:48:00,35.2,33.4,29.94,ESE,121,2.0,0.0,93,0.18,,OVC003,0.54,VWS V14.01,2013-01-11 08:48:00,
2013-01-11 03:53:00,35.2,33.4,29.94,ESE,121,2.0,0.0,93,0.16,,OVC003,0.55,VWS V14.01,2013-01-11 08:53:00,
2013-01-11 03:58:00,35.3,33.5,29.94,ESE,121,2.0,0.0,93,0.13,,OVC003,0.55,VWS V14.01,2013-01-11 08:58:00,
2013-01-11 04:03:00,35.3,33.5,29.93,ESE,121,2.0,0.0,93,0.12,,OVC003,0.56,VWS V14.01,2013-01-11 09:03:00,
2013-01-11 04:08:00,35.3,33.5,29.93,ESE,121,2.0,0.0,93,0.10,,OVC003,0.56,VWS V14.01,2013-01-11 09:08:00,
2013-01-11 04:13:00,35.3,33.5,29.93,ESE,121,2.0,0.0,93,0.08,,OVC003,0.56,VWS V14.01,2013-01-11 09:13:00,
2013-01-11 04:18:00,35.3,33.5,29.92,ESE,121,3.0,3.0,93,0.08,,OVC003,0.57,VWS V14.01,2013-01-11 09:18:00,
2013-01-11 04:23:00,35.4,33.6,29.92,ESE,121,2.0,0.0,93,0.07,,OVC003,0.57,VWS V14.01,2013-01-11 09:23:00,
2013-01-11 04:28:00,35.4,33.6,29.92,ESE,121,2.0,0.0,93,0.06,,OVC003,0.57,VWS V14.01,2013-01-11 09:28:00,
2013-01-11 04:33:00,35.4,33.6,29.90,ESE,121,2.0,0.0,93,0.04,,OVC003,0.57,VWS V14.01,2013-01-11 09:33:00,
2013-01-11 04:38:00,35.5,33.7,29.90,ESE,121,2.0,2.0,93,0.03,,OVC003,0.57,VWS V14.01,2013-01-11 09:38:00,
2013-01-11 04:43:00,35.5,33.7,29.90,ESE,121,4.0,4.0,93,0.03,,OVC003,0.57,VWS V14.01,2013-01-11 09:43:00,
2013-01-11 04:48:00,35.6,33.8,29.88,ESE,121,3.0,3.0,93,0.03,,OVC003,0.57,VWS V14.01,2013-01-11 09:48:00,
2013-01-11 04:53:00,35.6,33.8,29.88,ESE,121,2.0,0.0,93,0.02,,OVC003,0.57,VWS V14.01,2013-01-11 09:53:00,
2013-01-11 04:58:00,35.7,33.9,29.88,ESE,121,2.0,0.0,93,0.02,,OVC003,0.57,VWS V14.01,2013-01-11 09:58:00,
2013-01-11 05:03:00,35.7,33.9,29.87,ESE,121,2.0,0.0,93,0.01,,OVC003,0.57,VWS V14.01,2013-01-11 10:03:00,
2013-01-11 05:08:00,35.8,34.0,29.87,ESE,121,2.0,0.0,93,0.01,,OVC003,0.57,VWS V14.01,2013-01-11 10:08:00,
2013-01-11 05:13:00,35.9,34.1,29.87,ESE,121,2.0,0.0,93,0.01,,OVC003,0.57,VWS V14.01,2013-01-11 10:13:00,
2013-01-11 05:18:00,35.9,34.1,29.86,ESE,121,2.0,0.0,93,0.01,,OVC003,0.58,VWS V14.01,2013-01-11 10:18:00,
2013-01-11 05:23:00,36.0,34.2,29.86,ESE,122,2.0,0.0,93,0.01,,OVC003,0.58,VWS V14.01,2013-01-11 10:23:00,
2013-01-11 05:28:00,36.0,34.2,29.86,ESE,122,2.0,0.0,93,0.01,,OVC003,0.58,VWS V14.01,2013-01-11 10:28:00,
2013-01-11 05:33:00,36.1,34.3,29.85,ESE,121,2.0,2.0,93,0.01,,OVC003,0.58,VWS V14.01,2013-01-11 10:33:00,
2013-01-11 05:38:00,36.2,34.4,29.85,ESE,121,2.0,0.0,93,0.01,,OVC003,0.58,VWS V14.01,2013-01-11 10:38:00,
2013-01-11 05:43:00,36.2,34.4,29.85,ESE,122,2.0,0.0,93,0.01,,OVC003,0.58,VWS V14.01,2013-01-11 10:43:00,
2013-01-11 05:48:00,36.3,34.5,29.83,ESE,122,2.0,0.0,93,0.01,,OVC003,0.58,VWS V14.01,2013-01-11 10:48:00,
2013-01-11 05:53:00,36.4,34.6,29.83,ESE,122,2.0,2.0,93,0.01,,OVC003,0.58,VWS V14.01,2013-01-11 10:53:00,
2013-01-11 05:58:00,36.4,34.6,29.83,ESE,121,2.0,0.0,93,0.01,,OVC003,0.58,VWS V14.01,2013-01-11 10:58:00,
2013-01-11 06:03:00,36.5,34.7,29.83,ESE,121,2.0,0.0,93,0.01,,OVC003,0.58,VWS V14.01,2013-01-11 11:03:00,
2013-01-11 06:08:00,36.5,36.2,29.83,ESE,121,2.0,0.0,99,0.01,,OVC003,0.58,VWS V14.01,2013-01-11 11:08:00,
2013-01-11 06:13:00,36.5,34.9,29.83,ESE,122,2.0,0.0,94,0.01,,OVC003,0.58,VWS V14.01,2013-01-11 11:13:00,
2013-01-11 06:18:00,36.6,35.0,29.83,ESE,122,2.0,0.0,94,0.00,,OVC003,0.58,VWS V14.01,2013-01-11 11:18:00,
2013-01-11 06:23:00,36.6,35.0,29.83,ESE,121,2.0,0.0,94,0.00,,OVC003,0.58,VWS V14.01,2013-01-11 11:23:00,
2013-01-11 06:28:00,36.7,35.1,29.83,ESE,121,2.0,2.0,94,0.01,,OVC003,0.59,VWS V14.01,2013-01-11 11:28:00,
2013-01-11 06:33:00,36.9,35.3,29.82,ESE,122,2.0,0.0,94,0.02,,OVC003,0.60,VWS V14.01,2013-01-11 11:33:00,
2013-01-11 06:38:00,37.0,35.4,29.82,ESE,122,2.0,0.0,94,0.02,,OVC003,0.60,VWS V14.01,2013-01-11 11:38:00,
2013-01-11 06:44:00,37.1,35.5,29.82,ESE,121,2.0,0.0,94,0.02,,OVC003,0.60,VWS V14.01,2013-01-11 11:44:00,
2013-01-11 06:49:00,37.1,35.5,29.81,SE,125,5.0,5.0,94,0.02,,OVC003,0.60,VWS V14.01,2013-01-11 11:49:00,
2013-01-11 06:54:00,37.3,35.7,29.81,SE,126,3.0,3.0,94,0.02,,OVC003,0.60,VWS V14.01,2013-01-11 11:54:00,
2013-01-11 06:59:00,37.5,35.9,29.81,SE,126,2.0,0.0,94,0.02,,OVC003,0.60,VWS V14.01,2013-01-11 11:59:00,
2013-01-11 07:04:00,37.6,36.0,29.80,SE,126,2.0,2.0,94,0.02,,OVC003,0.60,VWS V14.01,2013-01-11 12:04:00,
2013-01-11 07:09:00,37.7,36.1,29.80,SE,127,4.0,4.0,94,0.02,,OVC003,0.60,VWS V14.01,2013-01-11 12:09:00,
2013-01-11 07:14:00,37.7,36.1,29.80,SSE,159,3.0,3.0,94,0.02,,OVC003,0.60,VWS V14.01,2013-01-11 12:14:00,
2013-01-11 07:19:00,37.9,36.3,29.78,SSE,159,2.0,2.0,94,0.02,,OVC003,0.60,VWS V14.01,2013-01-11 12:19:00,
2013-01-11 07:24:00,37.9,36.3,29.78,SSE,159,2.0,2.0,94,0.02,,OVC003,0.60,VWS V14.01,2013-01-11 12:24:00,
2013-01-11 07:29:00,37.9,36.3,29.78,SSE,159,2.0,0.0,94,0.01,,OVC003,0.60,VWS V14.01,2013-01-11 12:29:00,
2013-01-11 07:34:00,38.0,36.4,29.78,SSE,159,3.0,3.0,94,0.00,,OVC003,0.60,VWS V14.01,2013-01-11 12:34:00,
2013-01-11 07:39:00,38.2,36.6,29.78,East,85,2.0,2.0,94,0.01,,OVC003,0.61,VWS V14.01,2013-01-11 12:39:00,
2013-01-11 07:44:00,38.2,36.6,29.78,East,85,3.0,3.0,94,0.01,,OVC003,0.61,VWS V14.01,2013-01-11 12:44:00,
2013-01-11 07:49:00,38.3,36.7,29.76,East,85,2.0,2.0,94,0.01,,OVC003,0.61,VWS V14.01,2013-01-11 12:49:00,
2013-01-11 07:54:00,38.3,36.7,29.76,East,85,2.0,2.0,94,0.01,,OVC003,0.61,VWS V14.01,2013-01-11 12:54:00,
2013-01-11 07:59:00,38.3,36.7,29.76,East,85,2.0,0.0,94,0.01,,OVC003,0.61,VWS V14.01,2013-01-11 12:59:00,
2013-01-11 08:04:00,38.3,36.7,29.76,East,85,2.0,2.0,94,0.01,,OVC003,0.61,VWS V14.01,2013-01-11 13:04:00,
2013-01-11 08:09:00,38.3,36.7,29.76,East,85,2.0,0.0,94,0.01,,OVC003,0.61,VWS V14.01,2013-01-11 13:09:00,
2013-01-11 08:14:00,38.3,36.7,29.76,East,85,2.0,2.0,94,0.01,,OVC003,0.61,VWS V14.01,2013-01-11 13:14:00,
2013-01-11 08:19:00,38.3,36.7,29.75,East,85,2.0,2.0,94,0.02,,OVC003,0.62,VWS V14.01,2013-01-11 13:19:00,
2013-01-11 08:24:00,38.3,36.7,29.75,East,85,2.0,0.0,94,0.02,,OVC003,0.62,VWS V14.01,2013-01-11 13:24:00,
2013-01-11 08:29:00,38.4,36.8,29.75,East,85,2.0,2.0,94,0.02,,OVC003,0.62,VWS V14.01,2013-01-11 13:29:00,
2013-01-11 08:34:00,38.5,36.9,29.73,East,85,2.0,2.0,94,0.02,,OVC003,0.62,VWS V14.01,2013-01-11 13:34:00,
2013-01-11 08:39:00,38.6,37.0,29.73,ENE,76,2.0,2.0,94,0.01,,OVC003,0.62,VWS V14.01,2013-01-11 13:39:00,
2013-01-11 08:44:00,38.7,37.1,29.73,ENE,75,2.0,0.0,94,0.01,,OVC003,0.62,VWS V14.01,2013-01-11 13:44:00,
2013-01-11 08:49:00,38.8,37.2,29.73,ENE,75,2.0,2.0,94,0.01,,OVC003,0.62,VWS V14.01,2013-01-11 13:49:00,
2013-01-11 08:54:00,39.0,37.4,29.73,East,97,3.0,3.0,94,0.01,,OVC003,0.62,VWS V14.01,2013-01-11 13:54:00,
2013-01-11 08:59:00,39.2,37.6,29.73,ESE,120,4.0,4.0,94,0.01,,OVC003,0.62,VWS V14.01,2013-01-11 13:59:00,
2013-01-11 09:04:00,39.3,37.7,29.72,ESE,120,2.0,0.0,94,0.01,,OVC003,0.62,VWS V14.01,2013-01-11 14:04:00,
2013-01-11 09:09:00,39.4,37.8,29.72,ESE,120,2.0,0.0,94,0.01,,OVC003,0.62,VWS V14.01,2013-01-11 14:09:00,
2013-01-11 09:14:00,39.5,37.9,29.72,ESE,120,2.0,2.0,94,0.01,,OVC003,0.62,VWS V14.01,2013-01-11 14:14:00,
2013-01-11 09:19:00,39.7,38.1,29.72,SSE,155,3.0,3.0,94,0.01,,OVC003,0.62,VWS V14.01,2013-01-11 14:19:00,
2013-01-11 09:24:00,40.0,38.4,29.72,SSE,155,2.0,0.0,94,0.00,,OVC003,0.62,VWS V14.01,2013-01-11 14:24:00,
2013-01-11 09:29:00,39.9,38.3,29.72,SSE,155,2.0,0.0,94,0.00,,OVC003,0.62,VWS V14.01,2013-01-11 14:29:00,
2013-01-11 09:34:00,40.0,38.4,29.72,SSE,155,2.0,2.0,94,0.00,,OVC003,0.62,VWS V14.01,2013-01-11 14:34:00,
2013-01-11 09:39:00,40.1,38.5,29.72,SSE,155,2.0,2.0,94,0.00,,OVC003,0.62,VWS V14.01,2013-01-11 14:39:00,
2013-01-11 09:44:00,40.2,38.6,29.72,SSE,155,2.0,0.0,94,0.00,,OVC003,0.62,VWS V14.01,2013-01-11 14:44:00,
2013-01-11 09:49:00,40.1,38.5,29.72,SSE,155,2.0,0.0,94,0.00,,OVC003,0.62,VWS V14.01,2013-01-11 14:49:00,
2013-01-11 09:54:00,40.1,38.5,29.72,SSE,155,2.0,2.0,94,0.00,,OVC003,0.62,VWS V14.01,2013-01-11 14:54:00,
2013-01-11 09:59:00,40.2,38.6,29.72,SSE,155,2.0,0.0,94,0.00,,OVC003,0.62,VWS V14.01,2013-01-11 14:59:00,
2013-01-11 10:04:00,40.3,38.7,29.71,SSE,155,2.0,0.0,94,0.00,,OVC003,0.62,VWS V14.01,2013-01-11 15:04:00,
2013-01-11 10:09:00,40.4,38.8,29.71,SSE,155,2.0,0.0,94,0.00,,OVC003,0.62,VWS V14.01,2013-01-11 15:09:00,
2013-01-11 10:15:00,40.7,39.4,29.71,SSE,155,2.0,2.0,95,0.00,,OVC003,0.62,VWS V14.01,2013-01-11 15:15:00,
2013-01-11 10:20:00,41.0,39.4,29.71,SSE,155,2.0,2.0,94,0.00,,OVC003,0.62,VWS V14.01,2013-01-11 15:20:00,
2013-01-11 10:25:00,41.1,39.5,29.71,SSE,155,2.0,0.0,94,0.00,,OVC003,0.62,VWS V14.01,2013-01-11 15:25:00,
2013-01-11 10:30:00,41.2,39.9,29.71,SSE,155,2.0,0.0,95,0.00,,OVC003,0.62,VWS V14.01,2013-01-11 15:30:00,
2013-01-11 10:35:00,41.3,40.0,29.71,SSE,155,2.0,0.0,95,0.00,,OVC003,0.62,VWS V14.01,2013-01-11 15:35:00,
2013-01-11 10:40:00,41.4,40.1,29.71,SSE,155,2.0,0.0,95,0.00,,OVC003,0.62,VWS V14.01,2013-01-11 15:40:00,
2013-01-11 10:45:00,41.5,40.2,29.71,SSE,155,2.0,0.0,95,0.00,,OVC003,0.62,VWS V14.01,2013-01-11 15:45:00,
2013-01-11 10:50:00,41.6,40.3,29.71,SSE,155,2.0,0.0,95,0.00,,OVC003,0.62,VWS V14.01,2013-01-11 15:50:00,
2013-01-11 10:55:00,41.7,40.4,29.71,SSE,155,2.0,0.0,95,0.00,,OVC003,0.62,VWS V14.01,2013-01-11 15:55:00,
2013-01-11 11:00:00,41.8,40.5,29.71,SSE,155,2.0,0.0,95,0.00,,OVC003,0.62,VWS V14.01,2013-01-11 16:00:00,
2013-01-11 11:05:00,42.0,40.7,29.70,SSE,155,2.0,0.0,95,0.00,,OVC003,0.62,VWS V14.01,2013-01-11 16:05:00,
2013-01-11 11:10:00,42.1,40.8,29.70,SSE,155,3.0,3.0,95,0.00,,OVC003,0.62,VWS V14.01,2013-01-11 16:10:00,
2013-01-11 11:15:00,42.3,41.0,29.70,SSE,155,2.0,2.0,95,0.00,,OVC003,0.62,VWS V14.01,2013-01-11 16:15:00,
2013-01-11 11:20:00,42.5,41.2,29.70,SSE,155,2.0,3.0,95,0.00,,OVC003,0.62,VWS V14.01,2013-01-11 16:20:00,
2013-01-11 11:25:00,42.7,41.4,29.70,SSE,155,2.0,2.0,95,0.00,,OVC003,0.62,VWS V14.01,2013-01-11 16:25:00,
2013-01-11 11:30:00,42.8,41.5,29.70,SSE,155,2.0,2.0,95,0.00,,OVC003,0.62,VWS V14.01,2013-01-11 16:30:00,
2013-01-11 11:35:00,43.0,41.7,29.69,SSE,155,2.0,2.0,95,0.00,,OVC003,0.62,VWS V14.01,2013-01-11 16:35:00,
2013-01-11 11:40:00,43.1,41.8,29.69,SSE,155,2.0,0.0,95,0.00,,OVC003,0.62,VWS V14.01,2013-01-11 16:40:00,
2013-01-11 11:45:00,43.3,42.0,29.69,SSE,155,2.0,2.0,95,0.00,,OVC003,0.62,VWS V14.01,2013-01-11 16:45:00,
2013-01-11 11:50:00,43.6,42.3,29.68,SSE,155,2.0,2.0,95,0.00,,OVC003,0.62,VWS V14.01,2013-01-11 16:50:00,
2013-01-11 11:55:00,43.8,42.5,29.68,SSE,155,2.0,0.0,95,0.00,,OVC003,0.62,VWS V14.01,2013-01-11 16:55:00,
2013-01-11 12:00:00,44.0,42.7,29.68,SSE,155,2.0,2.0,95,0.00,,OVC003,0.62,VWS V14.01,2013-01-11 17:00:00,
2013-01-11 12:05:00,44.1,42.8,29.67,West,280,2.0,2.0,95,0.00,,OVC003,0.62,VWS V14.01,2013-01-11 17:05:00,
2013-01-11 12:10:00,44.5,43.2,29.67,West,280,2.0,2.0,95,0.00,,OVC003,0.62,VWS V14.01,2013-01-11 17:10:00,
2013-01-11 12:15:00,44.7,43.4,29.67,West,280,2.0,2.0,95,0.00,,OVC003,0.62,VWS V14.01,2013-01-11 17:15:00,
2013-01-11 12:20:00,45.0,43.7,29.66,WSW,255,3.0,3.0,95,0.00,,OVC003,0.62,VWS V14.01,2013-01-11 17:20:00,
2013-01-11 12:25:00,45.3,44.0,29.66,WSW,255,2.0,2.0,95,0.00,,OVC003,0.62,VWS V14.01,2013-01-11 17:25:00,
2013-01-11 12:30:00,45.6,44.2,29.66,WSW,255,2.0,0.0,95,0.00,,OVC003,0.62,VWS V14.01,2013-01-11 17:30:00,
2013-01-11 12:35:00,45.8,44.5,29.66,WSW,255,2.0,2.0,95,0.00,,OVC003,0.62,VWS V14.01,2013-01-11 17:35:00,
2013-01-11 12:40:00,46.1,44.8,29.66,WSW,255,2.0,2.0,95,0.00,,OVC003,0.62,VWS V14.01,2013-01-11 17:40:00,
2013-01-11 12:45:00,46.4,45.0,29.66,WSW,241,3.0,3.0,95,0.00,,OVC003,0.62,VWS V14.01,2013-01-11 17:45:00,
2013-01-11 12:50:00,46.7,45.3,29.65,WSW,241,2.0,0.0,95,0.00,,OVC003,0.62,VWS V14.01,2013-01-11 17:50:00,
2013-01-11 12:55:00,47.1,45.7,29.65,SSW,201,4.0,4.0,95,0.00,,OVC003,0.62,VWS V14.01,2013-01-11 17:55:00,
2013-01-11 13:00:00,47.5,46.1,29.65,South,191,3.0,4.0,95,0.00,,OVC003,0.62,VWS V14.01,2013-01-11 18:00:00,
2013-01-11 13:05:00,47.9,46.5,29.65,South,190,3.0,3.0,95,0.00,,OVC003,0.62,VWS V14.01,2013-01-11 18:05:00,
2013-01-11 13:10:00,48.1,46.7,29.65,SSW,193,2.0,2.0,95,0.00,,OVC003,0.62,VWS V14.01,2013-01-11 18:10:00,
2013-01-11 13:15:00,48.2,46.8,29.65,SW,233,2.0,3.0,95,0.00,,OVC003,0.62,VWS V14.01,2013-01-11 18:15:00,
2013-01-11 13:20:00,48.3,46.9,29.65,SW,233,2.0,0.0,95,0.00,,OVC003,0.62,VWS V14.01,2013-01-11 18:20:00,
2013-01-11 13:25:00,48.5,47.1,29.65,South,170,2.0,2.0,95,0.00,,OVC003,0.62,VWS V14.01,2013-01-11 18:25:00,
2013-01-11 13:30:00,48.7,47.3,29.65,South,171,2.0,0.0,95,0.00,,OVC003,0.62,VWS V14.01,2013-01-11 18:30:00,
2013-01-11 13:35:00,48.7,47.3,29.65,South,171,2.0,2.0,95,0.00,,OVC003,0.62,VWS V14.01,2013-01-11 18:35:00,
2013-01-11 13:40:00,48.8,47.4,29.65,South,171,2.0,2.0,95,0.00,,OVC003,0.62,VWS V14.01,2013-01-11 18:40:00,
2013-01-11 13:45:00,49.0,47.6,29.65,SW,228,3.0,3.0,95,0.00,,OVC003,0.62,VWS V14.01,2013-01-11 18:45:00,
2013-01-11 13:50:00,49.2,47.8,29.65,SW,228,2.0,3.0,95,0.00,,OVC003,0.62,VWS V14.01,2013-01-11 18:50:00,
2013-01-11 13:56:00,49.3,47.9,29.65,WNW,294,2.0,2.0,95,0.00,,OVC003,0.62,VWS V14.01,2013-01-11 18:56:00,
2013-01-11 14:01:00,49.5,48.1,29.65,West,265,2.0,3.0,95,0.00,,OVC003,0.62,VWS V14.01,2013-01-11 19:01:00,
2013-01-11 14:06:00,49.7,48.3,29.65,West,265,2.0,2.0,95,0.00,,OVC003,0.62,VWS V14.01,2013-01-11 19:06:00,
2013-01-11 14:11:00,49.8,48.4,29.65,SW,214,2.0,5.0,95,0.00,,OVC003,0.62,VWS V14.01,2013-01-11 19:11:00,
2013-01-11 14:16:00,50.0,48.6,29.65,SW,222,5.0,5.0,95,0.00,,OVC003,0.62,VWS V14.01,2013-01-11 19:16:00,
2013-01-11 14:21:00,50.2,48.8,29.65,SSW,205,2.0,3.0,95,0.00,,OVC003,0.62,VWS V14.01,2013-01-11 19:21:00,
2013-01-11 14:26:00,50.2,48.8,29.65,SSW,201,6.0,6.0,95,0.00,,OVC003,0.62,VWS V14.01,2013-01-11 19:26:00,
2013-01-11 14:31:00,50.4,49.0,29.65,SSE,165,2.0,4.0,95,0.00,,OVC003,0.62,VWS V14.01,2013-01-11 19:31:00,
2013-01-11 14:36:00,50.5,49.1,29.65,SSE,164,2.0,2.0,95,0.00,,OVC003,0.62,VWS V14.01,2013-01-11 19:36:00,
2013-01-11 14:41:00,50.5,49.1,29.65,SSE,164,2.0,2.0,95,0.00,,OVC003,0.62,VWS V14.01,2013-01-11 19:41:00,
2013-01-11 14:46:00,50.5,49.1,29.65,SSE,165,2.0,3.0,95,0.00,,OVC003,0.62,VWS V14.01,2013-01-11 19:46:00,
2013-01-11 14:51:00,50.5,49.1,29.65,SSE,165,2.0,2.0,95,0.00,,OVC003,0.62,VWS V14.01,2013-01-11 19:51:00,
2013-01-11 14:56:00,50.7,49.3,29.65,SSW,211,5.0,5.0,95,0.00,,OVC003,0.62,VWS V14.01,2013-01-11 19:56:00,
2013-01-11 15:01:00,50.9,49.5,29.65,SSW,211,2.0,2.0,95,0.00,,OVC003,0.62,VWS V14.01,2013-01-11 20:01:00,
2013-01-11 15:06:00,50.9,49.5,29.66,SSW,201,3.0,5.0,95,0.00,,OVC003,0.62,VWS V14.01,2013-01-11 20:06:00,
2013-01-11 15:11:00,51.1,49.7,29.66,WSW,237,3.0,5.0,95,0.00,,OVC003,0.62,VWS V14.01,2013-01-11 20:11:00,
2013-01-11 15:16:00,51.2,49.8,29.66,SSW,196,4.0,7.0,95,0.00,,OVC003,0.62,VWS V14.01,2013-01-11 20:16:00,
2013-01-11 15:21:00,51.1,49.7,29.66,WSW,248,5.0,5.0,95,0.00,,OVC003,0.62,VWS V14.01,2013-01-11 20:21:00,
2013-01-11 15:26:00,51.0,49.6,29.66,WSW,247,2.0,4.0,95,0.00,,OVC003,0.62,VWS V14.01,2013-01-11 20:26:00,
2013-01-11 15:31:00,51.0,49.6,29.66,South,183,3.0,3.0,95,0.00,,OVC003,0.62,VWS V14.01,2013-01-11 20:31:00,
2013-01-11 15:36:00,51.0,49.6,29.67,South,171,2.0,6.0,95,0.00,,OVC003,0.62,VWS V14.01,2013-01-11 20:36:00,
2013-01-11 15:41:00,51.1,49.7,29.67,SW,228,4.0,4.0,95,0.00,,OVC003,0.62,VWS V14.01,2013-01-11 20:41:00,
2013-01-11 15:46:00,51.1,49.7,29.67,WSW,253,2.0,6.0,95,0.00,,OVC003,0.62,VWS V14.01,2013-01-11 20:46:00,
2013-01-11 15:51:00,51.1,49.7,29.68,SSW,205,2.0,5.0,95,0.00,,OVC003,0.62,VWS V14.01,2013-01-11 20:51:00,
2013-01-11 15:56:00,51.0,49.6,29.68,SW,224,4.0,5.0,95,0.00,,OVC003,0.62,VWS V14.01,2013-01-11 20:56:00,
2013-01-11 16:01:00,51.0,49.6,29.68,SW,218,3.0,5.0,95,0.00,,OVC003,0.62,VWS V14.01,2013-01-11 21:01:00,
2013-01-11 16:06:00,51.0,49.6,29.68,SW,221,4.0,4.0,95,0.00,,OVC003,0.62,VWS V14.01,2013-01-11 21:06:00,
2013-01-11 16:11:00,51.0,49.6,29.68,SW,221,2.0,3.0,95,0.00,,OVC003,0.62,VWS V14.01,2013-01-11 21:11:00,
2013-01-11 16:16:00,51.0,49.6,29.68,WSW,239,5.0,6.0,95,0.00,,OVC003,0.62,VWS V14.01,2013-01-11 21:16:00,
2013-01-11 16:21:00,51.0,49.6,29.68,WSW,249,4.0,4.0,95,0.00,,OVC003,0.62,VWS V14.01,2013-01-11 21:21:00,
2013-01-11 16:26:00,51.0,49.6,29.68,WSW,239,4.0,5.0,95,0.00,,OVC003,0.62,VWS V14.01,2013-01-11 21:26:00,
2013-01-11 16:31:00,50.8,49.4,29.68,SW,216,6.0,6.0,95,0.00,,OVC003,0.62,VWS V14.01,2013-01-11 21:31:00,
2013-01-11 16:36:00,50.8,49.4,29.69,South,191,2.0,7.0,95,0.00,,OVC003,0.62,VWS V14.01,2013-01-11 21:36:00,
2013-01-11 16:41:00,50.7,49.3,29.69,WSW,249,6.0,6.0,95,0.00,,OVC003,0.62,VWS V14.01,2013-01-11 21:41:00,
2013-01-11 16:46:00,50.7,49.3,29.69,SSW,206,4.0,7.0,95,0.00,,OVC003,0.62,VWS V14.01,2013-01-11 21:46:00,
2013-01-11 16:52:00,50.6,49.2,29.70,SW,234,5.0,12.0,95,0.00,,OVC003,0.62,VWS V14.01,2013-01-11 21:52:00,
2013-01-11 16:57:00,50.5,49.1,29.70,WSW,237,5.0,10.0,95,0.00,,OVC003,0.62,VWS V14.01,2013-01-11 21:57:00,
2013-01-11 17:02:00,50.3,48.9,29.71,WNW,289,3.0,11.0,95,0.00,,OVC003,0.62,VWS V14.01,2013-01-11 22:02:00,
2013-01-11 17:07:00,50.2,48.8,29.71,SSW,198,3.0,6.0,95,0.00,,OVC003,0.62,VWS V14.01,2013-01-11 22:07:00,
2013-01-11 17:12:00,50.1,48.7,29.71,West,270,5.0,10.0,95,0.00,,OVC003,0.62,VWS V14.01,2013-01-11 22:12:00,
2013-01-11 17:17:00,50.0,48.6,29.71,WNW,285,8.0,8.0,95,0.00,,OVC003,0.62,VWS V14.01,2013-01-11 22:17:00,
2013-01-11 17:22:00,49.9,48.5,29.71,SW,221,4.0,7.0,95,0.00,,OVC003,0.62,VWS V14.01,2013-01-11 22:22:00,
2013-01-11 17:27:00,49.8,48.4,29.71,WSW,251,4.0,6.0,95,0.00,,OVC003,0.62,VWS V14.01,2013-01-11 22:27:00,
2013-01-11 17:32:00,49.7,48.3,29.72,SW,233,4.0,7.0,95,0.00,,OVC003,0.62,VWS V14.01,2013-01-11 22:32:00,
2013-01-11 17:37:00,49.6,48.2,29.72,SW,230,5.0,8.0,95,0.00,,OVC003,0.62,VWS V14.01,2013-01-11 22:37:00,
2013-01-11 17:42:00,49.6,48.2,29.72,West,262,4.0,10.0,95,0.00,,OVC003,0.62,VWS V14.01,2013-01-11 22:42:00,
2013-01-11 17:47:00,49.6,48.2,29.72,WNW,299,3.0,9.0,95,0.00,,OVC003,0.62,VWS V14.01,2013-01-11 22:47:00,
2013-01-11 17:52:00,49.4,48.0,29.72,WNW,282,2.0,7.0,95,0.00,,OVC003,0.62,VWS V14.01,2013-01-11 22:52:00,
2013-01-11 17:57:00,49.4,48.0,29.72,West,263,5.0,6.0,95,0.00,,OVC003,0.62,VWS V14.01,2013-01-11 22:57:00,
2013-01-11 18:02:00,49.4,48.0,29.73,WSW,253,4.0,6.0,95,0.00,,OVC003,0.62,VWS V14.01,2013-01-11 23:02:00,
2013-01-11 18:07:00,49.3,47.9,29.73,South,182,3.0,9.0,95,0.00,,OVC003,0.62,VWS V14.01,2013-01-11 23:07:00,
2013-01-11 18:12:00,49.2,47.8,29.73,SW,229,8.0,10.0,95,0.00,,OVC003,0.62,VWS V14.01,2013-01-11 23:12:00,
2013-01-11 18:17:00,49.2,47.8,29.74,SW,220,2.0,7.0,95,0.00,,OVC003,0.62,VWS V14.01,2013-01-11 23:17:00,
2013-01-11 18:22:00,49.2,47.8,29.74,SW,223,7.0,11.0,95,0.00,,OVC003,0.62,VWS V14.01,2013-01-11 23:22:00,
2013-01-11 18:27:00,49.1,47.7,29.74,West,270,3.0,9.0,95,0.00,,OVC003,0.62,VWS V14.01,2013-01-11 23:27:00,
2013-01-11 18:32:00,49.1,47.5,29.74,North,355,2.0,5.0,94,0.00,,OVC003,0.62,VWS V14.01,2013-01-11 23:32:00,
2013-01-11 18:37:00,48.9,47.2,29.74,South,182,2.0,4.0,94,0.00,,OVC003,0.62,VWS V14.01,2013-01-11 23:37:00,
2013-01-11 18:42:00,48.7,47.0,29.74,WSW,247,2.0,5.0,94,0.00,,OVC003,0.62,VWS V14.01,2013-01-11 23:42:00,
2013-01-11 18:47:00,48.6,47.0,29.74,SW,218,4.0,4.0,94,0.00,,OVC003,0.62,VWS V14.01,2013-01-11 23:47:00,
2013-01-11 18:52:00,48.5,46.9,29.74,SW,214,2.0,3.0,94,0.00,,OVC003,0.62,VWS V14.01,2013-01-11 23:52:00,
2013-01-11 18:57:00,48.4,46.8,29.74,SW,217,3.0,4.0,94,0.00,,OVC003,0.62,VWS V14.01,2013-01-11 23:57:00,
2013-01-11 19:02:00,48.4,46.5,29.73,SW,217,2.0,3.0,93,0.00,,OVC003,0.62,VWS V14.01,2013-01-12 00:02:00,
2013-01-11 19:07:00,48.3,46.4,29.73,South,189,2.0,2.0,93,0.00,,OVC003,0.62,VWS V14.01,2013-01-12 00:07:00,
2013-01-11 19:12:00,48.2,46.3,29.73,SW,236,4.0,6.0,93,0.00,,OVC003,0.62,VWS V14.01,2013-01-12 00:12:00,
2013-01-11 19:17:00,48.1,46.2,29.74,WNW,285,2.0,4.0,93,0.00,,OVC003,0.62,VWS V14.01,2013-01-12 00:17:00,
2013-01-11 19:22:00,48.0,46.1,29.74,SW,228,4.0,4.0,93,0.00,,OVC003,0.62,VWS V14.01,2013-01-12 00:22:00,
2013-01-11 19:27:00,48.0,46.1,29.74,SW,228,2.0,2.0,93,0.00,,OVC003,0.62,VWS V14.01,2013-01-12 00:27:00,
2013-01-11 19:32:00,47.9,46.0,29.73,SW,228,2.0,0.0,93,0.00,,OVC003,0.62,VWS V14.01,2013-01-12 00:32:00,
2013-01-11 19:37:00,47.9,46.0,29.73,SW,228,2.0,3.0,93,0.00,,OVC003,0.62,VWS V14.01,2013-01-12 00:37:00,
2013-01-11 19:42:00,47.8,45.9,29.73,SW,228,2.0,2.0,93,0.00,,OVC003,0.62,VWS V14.01,2013-01-12 00:42:00,
2013-01-11 19:47:00,47.7,45.8,29.74,SW,228,2.0,2.0,93,0.00,,OVC003,0.62,VWS V14.01,2013-01-12 00:47:00,
2013-01-11 19:53:00,47.6,45.7,29.74,SW,228,2.0,0.0,93,0.00,,OVC003,0.62,VWS V14.01,2013-01-12 00:53:00,
2013-01-11 19:57:00,47.6,45.7,29.74,SW,228,5.0,5.0,93,0.00,,OVC003,0.62,VWS V14.01,2013-01-12 00:57:00,
2013-01-11 20:02:00,47.6,45.7,29.75,SW,228,2.0,3.0,93,0.00,,OVC003,0.62,VWS V14.01,2013-01-12 01:02:00,
2013-01-11 20:08:00,47.5,45.6,29.75,SW,228,2.0,0.0,93,0.00,,OVC003,0.62,VWS V14.01,2013-01-12 01:08:00,
2013-01-11 20:13:00,47.5,45.6,29.75,SW,228,2.0,0.0,93,0.00,,OVC003,0.62,VWS V14.01,2013-01-12 01:13:00,
2013-01-11 20:18:00,47.4,45.5,29.74,SW,228,2.0,0.0,93,0.00,,OVC003,0.62,VWS V14.01,2013-01-12 01:18:00,
2013-01-11 20:23:00,47.3,45.4,29.74,SW,228,4.0,4.0,93,0.00,,OVC003,0.62,VWS V14.01,2013-01-12 01:23:00,
2013-01-11 20:28:00,47.2,45.3,29.74,SW,228,2.0,2.0,93,0.00,,OVC003,0.62,VWS V14.01,2013-01-12 01:28:00,
2013-01-11 20:33:00,47.1,45.2,29.74,SW,228,2.0,0.0,93,0.00,,OVC003,0.62,VWS V14.01,2013-01-12 01:33:00,
2013-01-11 20:38:00,47.0,45.1,29.74,SW,226,2.0,0.0,93,0.00,,OVC003,0.62,VWS V14.01,2013-01-12 01:38:00,
2013-01-11 20:43:00,46.9,45.0,29.74,SW,226,4.0,4.0,93,0.00,,OVC003,0.62,VWS V14.01,2013-01-12 01:43:00,
2013-01-11 20:48:00,47.0,45.1,29.75,SSW,213,3.0,4.0,93,0.00,,OVC003,0.62,VWS V14.01,2013-01-12 01:48:00,
2013-01-11 20:53:00,47.2,45.3,29.75,SW,218,5.0,5.0,93,0.00,,OVC003,0.62,VWS V14.01,2013-01-12 01:53:00,
2013-01-11 20:58:00,47.2,45.3,29.75,SSW,193,2.0,2.0,93,0.00,,OVC003,0.62,VWS V14.01,2013-01-12 01:58:00,
2013-01-11 21:03:00,47.2,45.3,29.75,SW,214,4.0,6.0,93,0.00,,OVC003,0.62,VWS V14.01,2013-01-12 02:03:00,
2013-01-11 21:08:00,47.2,45.3,29.75,SSW,212,5.0,5.0,93,0.00,,OVC003,0.62,VWS V14.01,2013-01-12 02:08:00,
2013-01-11 21:13:00,47.2,45.0,29.75,SW,236,4.0,4.0,92,0.00,,OVC003,0.62,VWS V14.01,2013-01-12 02:13:00,
2013-01-11 21:18:00,47.3,45.1,29.76,West,263,6.0,6.0,92,0.00,,OVC003,0.62,VWS V14.01,2013-01-12 02:18:00,
2013-01-11 21:23:00,47.3,45.1,29.76,SSW,203,4.0,4.0,92,0.00,,OVC003,0.62,VWS V14.01,2013-01-12 02:23:00,
2013-01-11 21:28:00,47.3,44.8,29.76,SSW,204,2.0,0.0,91,0.00,,OVC003,0.62,VWS V14.01,2013-01-12 02:28:00,
2013-01-11 21:33:00,47.2,44.7,29.75,SSW,203,2.0,0.0,91,0.00,,OVC003,0.62,VWS V14.01,2013-01-12 02:33:00,
2013-01-11 21:38:00,47.1,44.6,29.75,SSW,203,2.0,0.0,91,0.00,,OVC003,0.62,VWS V14.01,2013-01-12 02:38:00,
2013-01-11 21:43:00,46.9,44.1,29.75,SSW,204,2.0,0.0,90,0.00,,OVC003,0.62,VWS V14.01,2013-01-12 02:43:00,
2013-01-11 21:48:00,46.6,43.8,29.76,SSW,204,2.0,0.0,90,0.00,,OVC003,0.62,VWS V14.01,2013-01-12 02:48:00,
2013-01-11 21:54:00,46.4,43.9,29.76,SSE,167,3.0,3.0,91,0.00,,OVC003,0.62,VWS V14.01,2013-01-12 02:54:00,
2013-01-11 21:59:00,46.1,43.3,29.76,SSE,167,2.0,0.0,90,0.00,,OVC003,0.62,VWS V14.01,2013-01-12 02:59:00,
2013-01-11 22:04:00,45.8,43.0,29.75,SSE,167,2.0,2.0,90,0.00,,OVC003,0.62,VWS V14.01,2013-01-12 03:04:00,
2013-01-11 22:09:00,45.5,43.0,29.75,SSE,167,2.0,0.0,91,0.00,,OVC003,0.62,VWS V14.01,2013-01-12 03:09:00,
2013-01-11 22:14:00,45.2,42.7,29.75,SSE,167,2.0,2.0,91,0.00,,OVC003,0.62,VWS V14.01,2013-01-12 03:14:00,
2013-01-11 22:19:00,45.0,42.5,29.74,SSE,167,2.0,0.0,91,0.00,,OVC003,0.62,VWS V14.01,2013-01-12 03:19:00,
2013-01-11 22:24:00,45.0,42.5,29.74,SW,221,2.0,0.0,91,0.00,,OVC003,0.62,VWS V14.01,2013-01-12 03:24:00,
2013-01-11 22:29:00,45.0,42.5,29.74,SW,221,2.0,0.0,91,0.00,,OVC003,0.62,VWS V14.01,2013-01-12 03:29:00,
2013-01-11 22:34:00,44.9,42.4,29.75,SW,221,2.0,0.0,91,0.00,,OVC003,0.62,VWS V14.01,2013-01-12 03:34:00,
2013-01-11 22:39:00,44.9,42.7,29.75,SW,221,2.0,0.0,92,0.00,,OVC003,0.62,VWS V14.01,2013-01-12 03:39:00,
2013-01-11 22:44:00,44.8,42.6,29.75,SW,221,2.0,0.0,92,0.00,,OVC003,0.62,VWS V14.01,2013-01-12 03:44:00,
2013-01-11 22:49:00,44.6,42.1,29.74,SW,221,2.0,0.0,91,0.00,,OVC003,0.62,VWS V14.01,2013-01-12 03:49:00,
2013-01-11 22:54:00,44.4,42.2,29.74,SW,221,2.0,0.0,92,0.00,,OVC003,0.62,VWS V14.01,2013-01-12 03:54:00,
2013-01-11 22:59:00,44.3,42.1,29.74,SW,221,2.0,0.0,92,0.00,,OVC003,0.62,VWS V14.01,2013-01-12 03:59:00,
2013-01-11 23:04:00,44.2,42.0,29.74,SW,221,2.0,0.0,92,0.00,,OVC003,0.62,VWS V14.01,2013-01-12 04:04:00,
2013-01-11 23:09:00,44.0,41.8,29.74,SW,221,2.0,0.0,92,0.00,,OVC003,0.62,VWS V14.01,2013-01-12 04:09:00,
2013-01-11 23:14:00,43.9,41.7,29.74,SW,221,2.0,0.0,92,0.00,,OVC003,0.62,VWS V14.01,2013-01-12 04:14:00,
2013-01-11 23:19:00,43.7,41.5,29.73,SW,221,2.0,0.0,92,0.00,,OVC003,0.62,VWS V14.01,2013-01-12 04:19:00,
2013-01-11 23:24:00,43.8,41.6,29.73,SW,221,2.0,0.0,92,0.00,,OVC003,0.62,VWS V14.01,2013-01-12 04:24:00,
2013-01-11 23:29:00,43.8,41.6,29.73,SW,221,2.0,0.0,92,0.00,,OVC003,0.62,VWS V14.01,2013-01-12 04:29:00,
2013-01-11 23:34:00,43.7,41.5,29.73,SW,221,2.0,0.0,92,0.00,,OVC003,0.62,VWS V14.01,2013-01-12 04:34:00,
2013-01-11 23:39:00,43.6,41.4,29.73,SW,221,2.0,0.0,92,0.00,,OVC003,0.62,VWS V14.01,2013-01-12 04:39:00,
2013-01-11 23:44:00,43.5,41.3,29.73,SW,221,2.0,0.0,92,0.00,,OVC003,0.62,VWS V14.01,2013-01-12 04:44:00,
2013-01-11 23:49:00,43.4,41.5,29.73,SW,221,2.0,0.0,93,0.00,,OVC003,0.62,VWS V14.01,2013-01-12 04:49:00,
2013-01-11 23:54:00,43.3,41.4,29.73,SW,221,2.0,0.0,93,0.00,,OVC003,0.62,VWS V14.01,2013-01-12 04:54:00,
2013-01-11 23:59:00,43.3,41.4,29.73,SW,221,2.0,0.0,93,0.00,,OVC003,0.62,VWS V14.01,2013-01-12 04:59:00,